sensor_id;sensor_type;location;lat;lon;timestamp;pressure;altitude;pressure_sealevel;temperature
71630;BMP280;59479;51.902;8.212;2023-07-31T00:00:52;100345.69;;;19.31
71630;BMP280;59479;51.902;8.212;2023-07-31T00:03:18;100347.47;;;19.29
71630;BMP280;59479;51.902;8.212;2023-07-31T00:05:43;100343.56;;;19.20
71630;BMP280;59479;51.902;8.212;2023-07-31T00:08:09;100335.84;;;19.22
71630;BMP280;59479;51.902;8.212;2023-07-31T00:10:35;100343.38;;;19.25
71630;BMP280;59479;51.902;8.212;2023-07-31T00:13:00;100335.84;;;19.22
71630;BMP280;59479;51.902;8.212;2023-07-31T00:15:26;100337.94;;;19.12
71630;BMP280;59479;51.902;8.212;2023-07-31T00:17:56;100336.47;;;19.07
71630;BMP280;59479;51.902;8.212;2023-07-31T00:20:21;100338.25;;;19.05
71630;BMP280;59479;51.902;8.212;2023-07-31T00:22:46;100336.50;;;19.05
71630;BMP280;59479;51.902;8.212;2023-07-31T00:25:12;100332.56;;;18.97
71630;BMP280;59479;51.902;8.212;2023-07-31T00:27:37;100347.31;;;18.89
71630;BMP280;59479;51.902;8.212;2023-07-31T00:30:03;100337.19;;;18.88
71630;BMP280;59479;51.902;8.212;2023-07-31T00:32:28;100335.63;;;18.84
71630;BMP280;59479;51.902;8.212;2023-07-31T00:34:54;100348.03;;;18.93
71630;BMP280;59479;51.902;8.212;2023-07-31T00:37:19;100346.84;;;18.80
71630;BMP280;59479;51.902;8.212;2023-07-31T00:39:44;100345.66;;;18.88
71630;BMP280;59479;51.902;8.212;2023-07-31T00:42:10;100341.56;;;18.84
71630;BMP280;59479;51.902;8.212;2023-07-31T00:44:35;100345.00;;;18.83
71630;BMP280;59479;51.902;8.212;2023-07-31T00:47:00;100349.34;;;18.81
71630;BMP280;59479;51.902;8.212;2023-07-31T00:49:26;100352.38;;;18.68
71630;BMP280;59479;51.902;8.212;2023-07-31T00:51:52;100345.72;;;18.64
71630;BMP280;59479;51.902;8.212;2023-07-31T00:54:18;100348.56;;;18.56
71630;BMP280;59479;51.902;8.212;2023-07-31T00:56:45;100343.63;;;18.52
71630;BMP280;59479;51.902;8.212;2023-07-31T00:59:11;100350.56;;;18.49
71630;BMP280;59479;51.902;8.212;2023-07-31T01:01:36;100349.75;;;18.48
71630;BMP280;59479;51.902;8.212;2023-07-31T01:04:02;100342.66;;;18.56
71630;BMP280;59479;51.902;8.212;2023-07-31T01:06:35;100345.47;;;18.49
71630;BMP280;59479;51.902;8.212;2023-07-31T01:09:03;100350.78;;;18.43
71630;BMP280;59479;51.902;8.212;2023-07-31T01:11:35;100343.94;;;18.45
71630;BMP280;59479;51.902;8.212;2023-07-31T01:14:02;100333.03;;;18.41
71630;BMP280;59479;51.902;8.212;2023-07-31T01:16:27;100331.91;;;18.48
71630;BMP280;59479;51.902;8.212;2023-07-31T01:18:53;100333.00;;;18.64
71630;BMP280;59479;51.902;8.212;2023-07-31T01:21:28;100340.59;;;18.65
71630;BMP280;59479;51.902;8.212;2023-07-31T01:26:27;100330.91;;;18.52
71630;BMP280;59479;51.902;8.212;2023-07-31T01:29:10;100323.47;;;18.48
71630;BMP280;59479;51.902;8.212;2023-07-31T01:31:39;100322.22;;;18.57
71630;BMP280;59479;51.902;8.212;2023-07-31T01:34:08;100318.69;;;18.61
71630;BMP280;59479;51.902;8.212;2023-07-31T01:36:35;100310.94;;;18.64
71630;BMP280;59479;51.902;8.212;2023-07-31T01:39:01;100307.38;;;18.68
71630;BMP280;59479;51.902;8.212;2023-07-31T01:41:27;100308.22;;;18.69
71630;BMP280;59479;51.902;8.212;2023-07-31T01:43:53;100305.72;;;18.67
71630;BMP280;59479;51.902;8.212;2023-07-31T01:46:18;100309.94;;;18.68
71630;BMP280;59479;51.902;8.212;2023-07-31T01:48:43;100309.63;;;18.54
71630;BMP280;59479;51.902;8.212;2023-07-31T01:51:09;100301.09;;;18.55
71630;BMP280;59479;51.902;8.212;2023-07-31T01:53:34;100297.88;;;18.51
71630;BMP280;59479;51.902;8.212;2023-07-31T01:55:59;100285.47;;;18.43
71630;BMP280;59479;51.902;8.212;2023-07-31T01:58:25;100287.00;;;18.47
71630;BMP280;59479;51.902;8.212;2023-07-31T02:00:50;100282.75;;;18.48
71630;BMP280;59479;51.902;8.212;2023-07-31T02:03:15;100285.31;;;18.48
71630;BMP280;59479;51.902;8.212;2023-07-31T02:05:45;100281.94;;;18.46
71630;BMP280;59479;51.902;8.212;2023-07-31T02:08:10;100280.97;;;18.50
71630;BMP280;59479;51.902;8.212;2023-07-31T02:10:36;100280.91;;;18.51
71630;BMP280;59479;51.902;8.212;2023-07-31T02:13:01;100271.78;;;18.46
71630;BMP280;59479;51.902;8.212;2023-07-31T02:15:29;100269.03;;;18.52
71630;BMP280;59479;51.902;8.212;2023-07-31T02:17:54;100269.03;;;18.52
71630;BMP280;59479;51.902;8.212;2023-07-31T02:20:20;100268.09;;;18.52
71630;BMP280;59479;51.902;8.212;2023-07-31T02:22:45;100272.44;;;18.51
71630;BMP280;59479;51.902;8.212;2023-07-31T02:25:10;100258.03;;;18.51
71630;BMP280;59479;51.902;8.212;2023-07-31T02:27:35;100254.88;;;18.45
71630;BMP280;59479;51.902;8.212;2023-07-31T02:30:01;100258.34;;;18.42
71630;BMP280;59479;51.902;8.212;2023-07-31T02:32:26;100254.97;;;18.42
71630;BMP280;59479;51.902;8.212;2023-07-31T02:34:51;100248.00;;;18.47
71630;BMP280;59479;51.902;8.212;2023-07-31T02:37:17;100243.44;;;18.33
71630;BMP280;59479;51.902;8.212;2023-07-31T02:39:42;100251.13;;;18.32
71630;BMP280;59479;51.902;8.212;2023-07-31T02:42:08;100235.84;;;18.32
71630;BMP280;59479;51.902;8.212;2023-07-31T02:44:33;100245.72;;;18.18
71630;BMP280;59479;51.902;8.212;2023-07-31T02:46:58;100241.91;;;18.05
71630;BMP280;59479;51.902;8.212;2023-07-31T02:49:23;100236.78;;;18.07
71630;BMP280;59479;51.902;8.212;2023-07-31T02:51:49;100246.81;;;18.11
71630;BMP280;59479;51.902;8.212;2023-07-31T02:54:14;100233.00;;;17.94
71630;BMP280;59479;51.902;8.212;2023-07-31T02:56:39;100242.13;;;17.99
71630;BMP280;59479;51.902;8.212;2023-07-31T02:59:05;100241.09;;;18.05
71630;BMP280;59479;51.902;8.212;2023-07-31T03:01:30;100244.75;;;17.98
71630;BMP280;59479;51.902;8.212;2023-07-31T03:03:56;100242.34;;;17.93
71630;BMP280;59479;51.902;8.212;2023-07-31T03:06:21;100249.41;;;17.85
71630;BMP280;59479;51.902;8.212;2023-07-31T03:08:47;100237.31;;;17.92
71630;BMP280;59479;51.902;8.212;2023-07-31T03:11:12;100234.97;;;17.86
71630;BMP280;59479;51.902;8.212;2023-07-31T03:13:37;100244.78;;;17.96
71630;BMP280;59479;51.902;8.212;2023-07-31T03:16:03;100250.19;;;17.87
71630;BMP280;59479;51.902;8.212;2023-07-31T03:18:28;100245.16;;;17.86
71630;BMP280;59479;51.902;8.212;2023-07-31T03:20:53;100238.81;;;17.97
71630;BMP280;59479;51.902;8.212;2023-07-31T03:23:19;100243.84;;;17.99
71630;BMP280;59479;51.902;8.212;2023-07-31T03:26:00;100248.06;;;18.00
71630;BMP280;59479;51.902;8.212;2023-07-31T03:28:26;100243.13;;;17.95
71630;BMP280;59479;51.902;8.212;2023-07-31T03:30:52;100240.47;;;17.98
71630;BMP280;59479;51.902;8.212;2023-07-31T03:33:18;100241.81;;;18.08
71630;BMP280;59479;51.902;8.212;2023-07-31T03:35:43;100242.78;;;18.04
71630;BMP280;59479;51.902;8.212;2023-07-31T03:38:08;100242.19;;;17.98
71630;BMP280;59479;51.902;8.212;2023-07-31T03:40:34;100238.72;;;18.00
71630;BMP280;59479;51.902;8.212;2023-07-31T03:42:59;100239.47;;;18.02
71630;BMP280;59479;51.902;8.212;2023-07-31T03:45:24;100242.88;;;18.03
71630;BMP280;59479;51.902;8.212;2023-07-31T03:47:50;100239.47;;;18.02
71630;BMP280;59479;51.902;8.212;2023-07-31T03:50:15;100230.06;;;18.04
71630;BMP280;59479;51.902;8.212;2023-07-31T03:52:41;100238.38;;;18.09
71630;BMP280;59479;51.902;8.212;2023-07-31T03:55:07;100241.09;;;18.05
71630;BMP280;59479;51.902;8.212;2023-07-31T03:57:32;100238.72;;;18.00
71630;BMP280;59479;51.902;8.212;2023-07-31T03:59:57;100243.91;;;17.97
71630;BMP280;59479;51.902;8.212;2023-07-31T04:02:23;100237.94;;;17.98
71630;BMP280;59479;51.902;8.212;2023-07-31T04:04:48;100239.53;;;18.01
71630;BMP280;59479;51.902;8.212;2023-07-31T04:07:14;100245.22;;;18.07
71630;BMP280;59479;51.902;8.212;2023-07-31T04:09:39;100247.66;;;18.10
71630;BMP280;59479;51.902;8.212;2023-07-31T04:12:05;100247.66;;;18.10
71630;BMP280;59479;51.902;8.212;2023-07-31T04:14:30;100239.25;;;18.08
71630;BMP280;59479;51.902;8.212;2023-07-31T04:16:56;100246.19;;;18.05
71630;BMP280;59479;51.902;8.212;2023-07-31T04:19:21;100243.69;;;18.03
71630;BMP280;59479;51.902;8.212;2023-07-31T04:21:46;100244.44;;;18.05
71630;BMP280;59479;51.902;8.212;2023-07-31T04:24:12;100252.09;;;18.05
71630;BMP280;59479;51.902;8.212;2023-07-31T04:26:37;100255.69;;;18.00
71630;BMP280;59479;51.902;8.212;2023-07-31T04:29:02;100248.41;;;17.89
71630;BMP280;59479;51.902;8.212;2023-07-31T04:31:28;100248.09;;;17.98
71630;BMP280;59479;51.902;8.212;2023-07-31T04:33:53;100241.59;;;18.14
71630;BMP280;59479;51.902;8.212;2023-07-31T04:36:18;100241.66;;;18.12
71630;BMP280;59479;51.902;8.212;2023-07-31T04:38:43;100237.69;;;18.04
71630;BMP280;59479;51.902;8.212;2023-07-31T04:41:09;100239.38;;;18.05
71630;BMP280;59479;51.902;8.212;2023-07-31T04:43:34;100237.03;;;17.99
71630;BMP280;59479;51.902;8.212;2023-07-31T04:45:59;100240.91;;;18.09
71630;BMP280;59479;51.902;8.212;2023-07-31T04:48:25;100235.97;;;18.06
71630;BMP280;59479;51.902;8.212;2023-07-31T04:50:50;100240.59;;;17.95
71630;BMP280;59479;51.902;8.212;2023-07-31T04:53:15;100235.50;;;17.95
71630;BMP280;59479;51.902;8.212;2023-07-31T04:55:41;100241.25;;;18.00
71630;BMP280;59479;51.902;8.212;2023-07-31T04:58:06;100243.19;;;17.94
71630;BMP280;59479;51.902;8.212;2023-07-31T05:00:31;100238.09;;;17.94
71630;BMP280;59479;51.902;8.212;2023-07-31T05:02:57;100237.28;;;17.93
71630;BMP280;59479;51.902;8.212;2023-07-31T05:05:22;100228.44;;;18.03
71630;BMP280;59479;51.902;8.212;2023-07-31T05:07:47;100225.31;;;17.95
71630;BMP280;59479;51.902;8.212;2023-07-31T05:10:13;100231.38;;;17.93
71630;BMP280;59479;51.902;8.212;2023-07-31T05:12:38;100227.75;;;17.98
71630;BMP280;59479;51.902;8.212;2023-07-31T05:15:04;100224.41;;;17.98
71630;BMP280;59479;51.902;8.212;2023-07-31T05:17:29;100232.91;;;17.97
71630;BMP280;59479;51.902;8.212;2023-07-31T05:19:55;100229.53;;;17.96
71630;BMP280;59479;51.902;8.212;2023-07-31T05:22:20;100236.22;;;17.99
71630;BMP280;59479;51.902;8.212;2023-07-31T05:24:45;100236.22;;;17.99
71630;BMP280;59479;51.902;8.212;2023-07-31T05:27:11;100233.91;;;17.93
71630;BMP280;59479;51.902;8.212;2023-07-31T05:29:37;100241.41;;;17.96
71630;BMP280;59479;51.902;8.212;2023-07-31T05:32:03;100238.00;;;17.97
71630;BMP280;59479;51.902;8.212;2023-07-31T05:34:28;100235.38;;;17.98
71630;BMP280;59479;51.902;8.212;2023-07-31T05:36:53;100228.63;;;17.97
71630;BMP280;59479;51.902;8.212;2023-07-31T05:39:18;100228.59;;;17.99
71630;BMP280;59479;51.902;8.212;2023-07-31T05:41:45;100233.47;;;18.05
71630;BMP280;59479;51.902;8.212;2023-07-31T05:44:10;100230.06;;;18.04
71630;BMP280;59479;51.902;8.212;2023-07-31T05:46:36;100240.25;;;18.04
71630;BMP280;59479;51.902;8.212;2023-07-31T05:49:01;100235.16;;;18.04
71630;BMP280;59479;51.902;8.212;2023-07-31T05:51:27;100227.13;;;18.16
71630;BMP280;59479;51.902;8.212;2023-07-31T05:53:53;100220.13;;;18.21
71630;BMP280;59479;51.902;8.212;2023-07-31T05:56:18;100218.16;;;18.06
71630;BMP280;59479;51.902;8.212;2023-07-31T05:58:43;100217.84;;;18.15
71630;BMP280;59479;51.902;8.212;2023-07-31T06:01:09;100217.03;;;18.14
71630;BMP280;59479;51.902;8.212;2023-07-31T06:03:34;100208.69;;;18.11
71630;BMP280;59479;51.902;8.212;2023-07-31T06:05:59;100212.03;;;18.11
71630;BMP280;59479;51.902;8.212;2023-07-31T06:08:25;100212.50;;;18.21
71630;BMP280;59479;51.902;8.212;2023-07-31T06:10:50;100215.28;;;18.15
71630;BMP280;59479;51.902;8.212;2023-07-31T06:13:16;100215.19;;;18.18
71630;BMP280;59479;51.902;8.212;2023-07-31T06:15:41;100220.34;;;18.16
71630;BMP280;59479;51.902;8.212;2023-07-31T06:18:06;100223.28;;;18.27
71630;BMP280;59479;51.902;8.212;2023-07-31T06:20:33;100219.94;;;18.27
71630;BMP280;59479;51.902;8.212;2023-07-31T06:22:59;100216.56;;;18.26
71630;BMP280;59479;51.902;8.212;2023-07-31T06:25:24;100213.34;;;18.21
71630;BMP280;59479;51.902;8.212;2023-07-31T06:27:50;100207.91;;;18.30
71630;BMP280;59479;51.902;8.212;2023-07-31T06:30:15;100202.41;;;18.19
71630;BMP280;59479;51.902;8.212;2023-07-31T06:32:40;100206.53;;;18.22
71630;BMP280;59479;51.902;8.212;2023-07-31T06:35:06;100205.44;;;18.29
71630;BMP280;59479;51.902;8.212;2023-07-31T06:37:31;100187.41;;;18.35
71630;BMP280;59479;51.902;8.212;2023-07-31T06:39:57;100188.38;;;18.31
71630;BMP280;59479;51.902;8.212;2023-07-31T06:42:22;100188.34;;;18.32
71630;BMP280;59479;51.902;8.212;2023-07-31T06:44:47;100183.19;;;18.34
71630;BMP280;59479;51.902;8.212;2023-07-31T06:47:13;100182.97;;;18.40
71630;BMP280;59479;51.902;8.212;2023-07-31T06:49:38;100197.38;;;18.39
71630;BMP280;59479;51.902;8.212;2023-07-31T06:52:04;100188.06;;;18.40
71630;BMP280;59479;51.902;8.212;2023-07-31T06:54:29;100186.97;;;18.45
71630;BMP280;59479;51.902;8.212;2023-07-31T06:56:54;100194.28;;;18.33
71630;BMP280;59479;51.902;8.212;2023-07-31T06:59:20;100195.81;;;18.37
71630;BMP280;59479;51.902;8.212;2023-07-31T07:01:45;100190.88;;;18.32
71630;BMP280;59479;51.902;8.212;2023-07-31T07:04:10;100189.84;;;18.38
71630;BMP280;59479;51.902;8.212;2023-07-31T07:06:36;100182.31;;;18.35
71630;BMP280;59479;51.902;8.212;2023-07-31T07:09:01;100183.91;;;18.37
71630;BMP280;59479;51.902;8.212;2023-07-31T07:11:27;100192.78;;;18.49
71630;BMP280;59479;51.902;8.212;2023-07-31T07:13:52;100194.69;;;18.44
71630;BMP280;59479;51.902;8.212;2023-07-31T07:16:19;100189.41;;;18.48
71630;BMP280;59479;51.902;8.212;2023-07-31T07:18:44;100201.53;;;18.42
71630;BMP280;59479;51.902;8.212;2023-07-31T07:21:09;100212.50;;;18.44
71630;BMP280;59479;51.902;8.212;2023-07-31T07:23:39;100209.53;;;18.33
71630;BMP280;59479;51.902;8.212;2023-07-31T07:26:04;100211.81;;;18.39
71630;BMP280;59479;51.902;8.212;2023-07-31T07:28:30;100219.75;;;18.31
71630;BMP280;59479;51.902;8.212;2023-07-31T07:30:55;100201.19;;;18.29
71630;BMP280;59479;51.902;8.212;2023-07-31T07:33:20;100198.34;;;18.37
71630;BMP280;59479;51.902;8.212;2023-07-31T07:35:46;100192.50;;;18.35
71630;BMP280;59479;51.902;8.212;2023-07-31T07:38:11;100192.50;;;18.35
71630;BMP280;59479;51.902;8.212;2023-07-31T07:40:40;100192.38;;;18.38
71630;BMP280;59479;51.902;8.212;2023-07-31T07:43:05;100198.03;;;18.44
71630;BMP280;59479;51.902;8.212;2023-07-31T07:45:31;100193.38;;;18.34
71630;BMP280;59479;51.902;8.212;2023-07-31T07:47:56;100188.66;;;18.46
71630;BMP280;59479;51.902;8.212;2023-07-31T07:50:21;100190.25;;;18.49
71630;BMP280;59479;51.902;8.212;2023-07-31T07:52:47;100184.22;;;18.51
71630;BMP280;59479;51.902;8.212;2023-07-31T07:55:12;100185.91;;;18.51
71630;BMP280;59479;51.902;8.212;2023-07-31T07:57:37;100175.56;;;18.55
71630;BMP280;59479;51.902;8.212;2023-07-31T08:00:03;100178.94;;;18.55
71630;BMP280;59479;51.902;8.212;2023-07-31T08:02:28;100175.44;;;18.58
71630;BMP280;59479;51.902;8.212;2023-07-31T08:04:54;100165.31;;;18.56
71630;BMP280;59479;51.902;8.212;2023-07-31T08:07:19;100171.78;;;18.44
71630;BMP280;59479;51.902;8.212;2023-07-31T08:09:44;100160.88;;;18.61
71630;BMP280;59479;51.902;8.212;2023-07-31T08:12:09;100156.56;;;18.63
71630;BMP280;59479;51.902;8.212;2023-07-31T08:14:35;100153.13;;;18.64
71630;BMP280;59479;51.902;8.212;2023-07-31T08:17:01;100144.22;;;18.54
71630;BMP280;59479;51.902;8.212;2023-07-31T08:19:27;100150.19;;;18.53
71630;BMP280;59479;51.902;8.212;2023-07-31T08:21:52;100144.00;;;18.59
71630;BMP280;59479;51.902;8.212;2023-07-31T08:24:18;100123.78;;;18.56
71630;BMP280;59479;51.902;8.212;2023-07-31T08:26:43;100114.66;;;18.51
71630;BMP280;59479;51.902;8.212;2023-07-31T08:29:08;100129.94;;;18.51
71630;BMP280;59479;51.902;8.212;2023-07-31T08:31:34;100128.28;;;18.50
71630;BMP280;59479;51.902;8.212;2023-07-31T08:34:00;100129.75;;;18.55
71630;BMP280;59479;51.902;8.212;2023-07-31T08:36:25;100121.09;;;18.59
71630;BMP280;59479;51.902;8.212;2023-07-31T08:38:50;100122.50;;;18.46
71630;BMP280;59479;51.902;8.212;2023-07-31T08:41:16;100119.91;;;18.48
71630;BMP280;59479;51.902;8.212;2023-07-31T08:43:46;100118.69;;;18.56
71630;BMP280;59479;51.902;8.212;2023-07-31T08:46:11;100116.22;;;18.54
71630;BMP280;59479;51.902;8.212;2023-07-31T08:48:39;100116.91;;;18.58
71630;BMP280;59479;51.902;8.212;2023-07-31T08:51:06;100112.06;;;18.52
71630;BMP280;59479;51.902;8.212;2023-07-31T08:53:31;100126.25;;;18.57
71630;BMP280;59479;51.902;8.212;2023-07-31T08:55:58;100119.00;;;18.49
71630;BMP280;59479;51.902;8.212;2023-07-31T08:58:24;100119.91;;;18.48
71630;BMP280;59479;51.902;8.212;2023-07-31T09:00:50;100121.31;;;18.54
71630;BMP280;59479;51.902;8.212;2023-07-31T09:03:18;100120.28;;;18.58
71630;BMP280;59479;51.902;8.212;2023-07-31T09:05:46;100122.44;;;18.48
71630;BMP280;59479;51.902;8.212;2023-07-31T09:08:13;100120.50;;;18.52
71630;BMP280;59479;51.902;8.212;2023-07-31T09:10:42;100114.50;;;18.55
71630;BMP280;59479;51.902;8.212;2023-07-31T09:13:09;100107.94;;;18.50
71630;BMP280;59479;51.902;8.212;2023-07-31T09:15:36;100116.22;;;18.54
71630;BMP280;59479;51.902;8.212;2023-07-31T09:18:03;100108.97;;;18.65
71630;BMP280;59479;51.902;8.212;2023-07-31T09:20:28;100119.13;;;18.65
71630;BMP280;59479;51.902;8.212;2023-07-31T09:22:54;100113.47;;;18.59
71630;BMP280;59479;51.902;8.212;2023-07-31T09:25:22;100109.06;;;18.62
71630;BMP280;59479;51.902;8.212;2023-07-31T09:27:51;100109.28;;;18.58
71630;BMP280;59479;51.902;8.212;2023-07-31T09:30:17;100107.56;;;18.58
71630;BMP280;59479;51.902;8.212;2023-07-31T09:32:47;100108.53;;;18.56
71630;BMP280;59479;51.902;8.212;2023-07-31T09:38:04;100106.94;;;18.73
71630;BMP280;59479;51.902;8.212;2023-07-31T09:40:34;100100.31;;;18.69
71630;BMP280;59479;51.902;8.212;2023-07-31T09:43:01;100100.50;;;18.65
71630;BMP280;59479;51.902;8.212;2023-07-31T09:45:27;100095.78;;;18.76
71630;BMP280;59479;51.902;8.212;2023-07-31T09:47:53;100094.66;;;18.63
71630;BMP280;59479;51.902;8.212;2023-07-31T09:50:21;100092.81;;;18.66
71630;BMP280;59479;51.902;8.212;2023-07-31T09:52:47;100098.47;;;18.73
71630;BMP280;59479;51.902;8.212;2023-07-31T09:55:13;100093.06;;;18.80
71630;BMP280;59479;51.902;8.212;2023-07-31T09:57:40;100098.28;;;18.77
71630;BMP280;59479;51.902;8.212;2023-07-31T10:00:07;100098.19;;;18.59
71630;BMP280;59479;51.902;8.212;2023-07-31T10:02:34;100089.63;;;18.61
71630;BMP280;59479;51.902;8.212;2023-07-31T10:05:02;100092.09;;;18.63
71630;BMP280;59479;51.902;8.212;2023-07-31T10:07:30;100089.88;;;18.75
71630;BMP280;59479;51.902;8.212;2023-07-31T10:09:57;100087.22;;;18.78
71630;BMP280;59479;51.902;8.212;2023-07-31T10:12:25;100086.41;;;18.78
71630;BMP280;59479;51.902;8.212;2023-07-31T10:14:54;100081.84;;;18.84
71630;BMP280;59479;51.902;8.212;2023-07-31T10:17:21;100086.06;;;18.85
71630;BMP280;59479;51.902;8.212;2023-07-31T10:19:47;100075.63;;;18.91
71630;BMP280;59479;51.902;8.212;2023-07-31T10:22:14;100077.53;;;18.86
71630;BMP280;59479;51.902;8.212;2023-07-31T10:24:41;100079.06;;;18.90
71630;BMP280;59479;51.902;8.212;2023-07-31T10:27:08;100077.16;;;18.95
71630;BMP280;59479;51.902;8.212;2023-07-31T10:29:35;100078.25;;;18.90
71630;BMP280;59479;51.902;8.212;2023-07-31T10:32:01;100081.53;;;18.92
71630;BMP280;59479;51.902;8.212;2023-07-31T10:34:27;100079.13;;;18.89
71630;BMP280;59479;51.902;8.212;2023-07-31T10:40:03;100071.59;;;18.86
71630;BMP280;59479;51.902;8.212;2023-07-31T10:44:59;100078.31;;;18.88
71630;BMP280;59479;51.902;8.212;2023-07-31T10:47:25;100069.13;;;18.84
71630;BMP280;59479;51.902;8.212;2023-07-31T10:49:50;100076.16;;;18.99
71630;BMP280;59479;51.902;8.212;2023-07-31T10:52:20;100076.84;;;19.02
71630;BMP280;59479;51.902;8.212;2023-07-31T10:54:49;100082.25;;;18.95
71630;BMP280;59479;51.902;8.212;2023-07-31T10:57:22;100075.06;;;18.85
71630;BMP280;59479;51.902;8.212;2023-07-31T10:59:48;100073.31;;;18.85
71630;BMP280;59479;51.902;8.212;2023-07-31T11:02:27;100065.28;;;18.94
71630;BMP280;59479;51.902;8.212;2023-07-31T11:05:10;100062.97;;;18.90
71630;BMP280;59479;51.902;8.212;2023-07-31T11:07:49;100070.84;;;18.84
71630;BMP280;59479;51.902;8.212;2023-07-31T11:10:16;100063.41;;;18.79
71630;BMP280;59479;51.902;8.212;2023-07-31T11:12:42;100061.47;;;18.84
71630;BMP280;59479;51.902;8.212;2023-07-31T11:15:08;100058.94;;;18.84
71630;BMP280;59479;51.902;8.212;2023-07-31T11:17:33;100066.25;;;18.92
71630;BMP280;59479;51.902;8.212;2023-07-31T11:19:58;100063.66;;;18.93
71630;BMP280;59479;51.902;8.212;2023-07-31T11:22:24;100057.59;;;18.95
71630;BMP280;59479;51.902;8.212;2023-07-31T11:24:49;100060.69;;;19.03
71630;BMP280;59479;51.902;8.212;2023-07-31T11:27:14;100062.06;;;19.10
71630;BMP280;59479;51.902;8.212;2023-07-31T11:29:40;100063.44;;;19.17
71630;BMP280;59479;51.902;8.212;2023-07-31T11:32:15;100068.06;;;19.09
71630;BMP280;59479;51.902;8.212;2023-07-31T11:34:55;100054.72;;;19.04
71630;BMP280;59479;51.902;8.212;2023-07-31T11:37:20;100058.00;;;19.06
71630;BMP280;59479;51.902;8.212;2023-07-31T11:39:59;100056.56;;;19.01
71630;BMP280;59479;51.902;8.212;2023-07-31T11:42:24;100032.53;;;19.06
71630;BMP280;59479;51.902;8.212;2023-07-31T11:44:50;100052.00;;;19.07
71630;BMP280;59479;51.902;8.212;2023-07-31T11:47:16;100042.78;;;19.05
71630;BMP280;59479;51.902;8.212;2023-07-31T11:49:41;100043.41;;;19.10
71630;BMP280;59479;51.902;8.212;2023-07-31T11:52:07;100045.91;;;19.11
71630;BMP280;59479;51.902;8.212;2023-07-31T11:54:32;100045.53;;;19.00
71630;BMP280;59479;51.902;8.212;2023-07-31T11:56:58;100042.59;;;19.09
71630;BMP280;59479;51.902;8.212;2023-07-31T11:59:26;100044.25;;;19.10
71630;BMP280;59479;51.902;8.212;2023-07-31T12:01:51;100036.88;;;19.04
71630;BMP280;59479;51.902;8.212;2023-07-31T12:04:19;100037.22;;;19.15
71630;BMP280;59479;51.902;8.212;2023-07-31T12:06:45;100035.94;;;19.25
71630;BMP280;59479;51.902;8.212;2023-07-31T12:09:10;100038.66;;;19.21
71630;BMP280;59479;51.902;8.212;2023-07-31T12:11:46;100040.47;;;19.19
71630;BMP280;59479;51.902;8.212;2023-07-31T12:16:46;100025.47;;;19.13
71630;BMP280;59479;51.902;8.212;2023-07-31T12:19:11;100029.25;;;19.23
71630;BMP280;59479;51.902;8.212;2023-07-31T12:21:37;100035.50;;;19.16
71630;BMP280;59479;51.902;8.212;2023-07-31T12:24:03;100050.59;;;19.20
71630;BMP280;59479;51.902;8.212;2023-07-31T12:26:34;100032.34;;;19.11
71630;BMP280;59479;51.902;8.212;2023-07-31T12:28:59;100044.63;;;19.21
71630;BMP280;59479;51.902;8.212;2023-07-31T12:31:27;100046.47;;;19.18
71630;BMP280;59479;51.902;8.212;2023-07-31T12:33:53;100038.19;;;19.13
71630;BMP280;59479;51.902;8.212;2023-07-31T12:36:21;100043.66;;;19.04
71630;BMP280;59479;51.902;8.212;2023-07-31T12:38:46;100040.94;;;19.08
71630;BMP280;59479;51.902;8.212;2023-07-31T12:41:12;100045.91;;;19.11
71630;BMP280;59479;51.902;8.212;2023-07-31T12:43:40;100043.81;;;19.01
71630;BMP280;59479;51.902;8.212;2023-07-31T12:46:06;100034.41;;;19.03
71630;BMP280;59479;51.902;8.212;2023-07-31T12:48:33;100031.03;;;19.21
71630;BMP280;59479;51.902;8.212;2023-07-31T12:50:58;100034.34;;;19.23
71630;BMP280;59479;51.902;8.212;2023-07-31T12:53:23;100032.75;;;19.20
71630;BMP280;59479;51.902;8.212;2023-07-31T12:55:49;100022.44;;;19.23
71630;BMP280;59479;51.902;8.212;2023-07-31T12:58:15;100023.66;;;19.15
71630;BMP280;59479;51.902;8.212;2023-07-31T13:00:40;100019.00;;;19.24
71630;BMP280;59479;51.902;8.212;2023-07-31T13:03:05;100023.13;;;19.27
71630;BMP280;59479;51.902;8.212;2023-07-31T13:05:31;100014.31;;;19.34
71630;BMP280;59479;51.902;8.212;2023-07-31T13:07:56;100020.53;;;19.46
71630;BMP280;59479;51.902;8.212;2023-07-31T13:10:22;100014.25;;;19.53
71630;BMP280;59479;51.902;8.212;2023-07-31T13:12:48;100013.19;;;19.57
71630;BMP280;59479;51.902;8.212;2023-07-31T13:15:14;100011.44;;;19.59
71630;BMP280;59479;51.902;8.212;2023-07-31T13:17:39;100007.00;;;19.63
71630;BMP280;59479;51.902;8.212;2023-07-31T13:20:05;100001.63;;;19.69
71630;BMP280;59479;51.902;8.212;2023-07-31T13:22:30;99993.69;;;19.75
71630;BMP280;59479;51.902;8.212;2023-07-31T13:24:56;100000.66;;;19.89
71630;BMP280;59479;51.902;8.212;2023-07-31T13:27:21;99994.56;;;19.92
71630;BMP280;59479;51.902;8.212;2023-07-31T13:29:51;99984.69;;;19.86
71630;BMP280;59479;51.902;8.212;2023-07-31T13:32:17;99972.97;;;19.99
71630;BMP280;59479;51.902;8.212;2023-07-31T13:34:44;99970.28;;;20.02
71630;BMP280;59479;51.902;8.212;2023-07-31T13:37:09;99971.63;;;20.09
71630;BMP280;59479;51.902;8.212;2023-07-31T13:39:34;99963.09;;;20.10
71630;BMP280;59479;51.902;8.212;2023-07-31T13:42:00;99965.03;;;20.22
71630;BMP280;59479;51.902;8.212;2023-07-31T13:44:26;99966.38;;;20.12
71630;BMP280;59479;51.902;8.212;2023-07-31T13:46:51;99966.53;;;20.09
71630;BMP280;59479;51.902;8.212;2023-07-31T13:49:17;99976.72;;;20.09
71630;BMP280;59479;51.902;8.212;2023-07-31T13:51:42;99974.66;;;20.17
71630;BMP280;59479;51.902;8.212;2023-07-31T13:54:07;99981.56;;;20.15
71630;BMP280;59479;51.902;8.212;2023-07-31T13:56:33;99973.38;;;20.25
71630;BMP280;59479;51.902;8.212;2023-07-31T13:58:58;99972.09;;;20.33
71630;BMP280;59479;51.902;8.212;2023-07-31T14:01:25;99961.06;;;20.33
71630;BMP280;59479;51.902;8.212;2023-07-31T14:03:51;99957.44;;;20.37